Pagrindinis puslapis
METAR-TAF:

METAR-TAF

Oro uostai :

Seinejokis-Ilmajoki, Suomija

platuma: 62-41-37N, ilguma: 022-49-55E, Aukštis: 91 m

Dabartinis oras

Ataskaita buvo paskelbta 14 minutes, ne 10:50 UTC
Vėjas 7 kt iš Vakarų, svyruoja nuo Pietų/Pietvakarių ir Šiaurės/Šiaurės Vakarų
Temperatūra 18°C
Drėgmė 52%
Slėgis 1020 hPa
Matomumas 10 km arba daugiau
nėra debesų žemiau 1500 m ir nėra kamuolinių lietaus debesų

METAR: EFSI 221050Z AUTO 26007KT 200V340 CAVOK 18/08 Q1020

Laikas: 14:04 (11:04 UTC)


TAF: trūkstamas

Orai ataskaitas ir orų prognozės (METAR, TAF).

turimą stotys yra geltonos ir raudonos taškus žemėlapyje.

Perkelti pele per norėdami pamatyti stoties vardą.

Tada spustelėkite, norėdami matyti oro stebėjimo ir prognozės.

Norėdami pakeisti žemėlapį: spustelėkite ant žalios mygtukų su juodo kryžiaus žemyn,; žalią mygtuką su brūkšneliu, jei norite nutolinti; arba žalių rodyklių gretimoms žemėlapius.


METAR-TAF: